createdAt,value
2022-11-03T00:05:54.378Z,12.30
2022-11-03T00:15:58.468Z,12.15
2022-11-03T00:26:05.772Z,12.20
2022-11-03T00:36:13.343Z,12.22
2022-11-03T00:46:18.308Z,12.07
2022-11-03T00:56:23.600Z,12.16
2022-11-03T01:06:44.030Z,12.20
2022-11-03T01:16:47.919Z,12.17
2022-11-03T01:26:50.959Z,11.97
2022-11-03T01:36:54.971Z,11.96
2022-11-03T01:47:04.217Z,11.79
2022-11-03T01:57:12.522Z,11.85
2022-11-03T02:07:20.232Z,11.88
2022-11-03T02:17:27.052Z,11.92
2022-11-03T02:27:31.262Z,11.84
2022-11-03T02:37:37.749Z,11.82
2022-11-03T02:47:42.879Z,11.87
2022-11-03T02:57:52.277Z,11.72
2022-11-03T03:08:02.365Z,11.79
2022-11-03T03:18:15.678Z,11.79
2022-11-03T03:28:24.128Z,11.71
2022-11-03T03:38:31.759Z,11.87
2022-11-03T03:48:35.839Z,11.81
2022-11-03T03:58:38.478Z,11.81
2022-11-03T04:08:42.491Z,11.90
2022-11-03T04:19:02.734Z,11.83
2022-11-03T04:29:10.617Z,11.87
2022-11-03T04:39:18.158Z,11.79
2022-11-03T04:49:24.302Z,11.93
2022-11-03T04:59:26.997Z,11.96
2022-11-03T05:09:32.865Z,12.01
2022-11-03T05:19:38.645Z,12.19
2022-11-03T05:29:42.783Z,11.97
2022-11-03T05:39:49.118Z,11.91
2022-11-03T05:49:57.007Z,11.82
2022-11-03T06:00:00.097Z,11.92
2022-11-03T06:10:21.251Z,11.85
2022-11-03T06:20:24.005Z,11.94
2022-11-03T06:30:30.215Z,11.83
2022-11-03T06:40:35.817Z,11.77
2022-11-03T06:50:43.884Z,11.74
2022-11-03T07:00:51.403Z,12.05
2022-11-03T07:11:02.389Z,12.12
2022-11-03T07:21:17.648Z,12.17
2022-11-03T07:31:24.728Z,12.32
2022-11-03T07:41:34.088Z,12.49
2022-11-03T07:51:40.999Z,12.76
2022-11-03T08:01:46.504Z,12.95
2022-11-03T08:11:51.217Z,13.19
2022-11-03T08:21:53.857Z,13.37
2022-11-03T08:31:57.850Z,13.68
2022-11-03T08:42:00.455Z,13.83
2022-11-03T08:52:04.709Z,13.85
2022-11-03T09:02:08.159Z,13.98
2022-11-03T09:12:12.396Z,14.20
2022-11-03T09:22:15.052Z,14.65
2022-11-03T09:32:23.210Z,14.93
2022-11-03T09:42:27.225Z,15.27
2022-11-03T09:52:32.300Z,15.48
2022-11-03T10:02:38.758Z,15.56
2022-11-03T10:12:42.749Z,15.70
2022-11-03T10:22:47.241Z,15.85
2022-11-03T10:32:51.317Z,16.13
2022-11-03T10:42:59.823Z,16.11
2022-11-03T10:53:04.987Z,16.36
2022-11-03T11:03:08.702Z,16.61
2022-11-03T11:13:31.039Z,16.06
2022-11-03T11:23:49.589Z,15.99
2022-11-03T11:34:32.014Z,15.75
2022-11-03T11:44:57.810Z,16.01
2022-11-03T11:55:00.726Z,16.11
2022-11-03T12:05:05.263Z,16.21
2022-11-03T12:15:47.559Z,16.18
2022-11-03T12:25:51.526Z,16.18
2022-11-03T12:35:54.364Z,16.45
2022-11-03T12:45:58.377Z,16.36
2022-11-03T12:56:01.644Z,16.24
2022-11-03T13:06:09.976Z,16.20
2022-11-03T13:16:12.607Z,16.20
2022-11-03T13:26:16.618Z,15.97
2022-11-03T13:36:19.392Z,15.97
2022-11-03T13:46:23.459Z,16.07
2022-11-03T13:56:26.197Z,15.90
2022-11-03T14:06:30.280Z,15.87
2022-11-03T14:16:33.153Z,15.72
2022-11-03T14:26:42.740Z,15.81
2022-11-03T14:36:46.958Z,15.58
2022-11-03T14:46:50.978Z,15.40
2022-11-03T14:56:53.825Z,15.21
2022-11-03T15:06:57.827Z,15.10
2022-11-03T15:17:00.718Z,15.10
2022-11-03T15:27:04.775Z,14.91
2022-11-03T15:37:07.459Z,14.73
2022-11-03T15:47:11.585Z,14.66
2022-11-03T16:07:23.156Z,14.56
2022-11-03T16:17:25.882Z,14.62
2022-11-03T16:27:30.010Z,14.49
2022-11-03T16:37:32.698Z,14.45
2022-11-03T16:47:36.687Z,14.42
2022-11-03T16:57:39.578Z,14.45
2022-11-03T17:07:45.429Z,14.49
2022-11-03T17:17:51.825Z,14.53
2022-11-03T17:27:58.641Z,14.45
2022-11-03T17:38:03.974Z,14.39
2022-11-03T17:48:08.037Z,14.37
2022-11-03T17:58:11.881Z,14.13
2022-11-03T18:08:16.732Z,13.96
2022-11-03T18:18:25.177Z,13.73
2022-11-03T18:28:29.657Z,13.67
2022-11-03T18:38:32.458Z,13.64
2022-11-03T18:48:36.497Z,13.41
2022-11-03T18:58:39.573Z,13.27
2022-11-03T19:08:45.205Z,13.06
2022-11-03T19:18:49.077Z,12.94
2022-11-03T19:28:57.434Z,12.85
2022-11-03T19:39:00.978Z,12.84
2022-11-03T19:49:05.964Z,12.80
2022-11-03T19:59:12.439Z,12.73
2022-11-03T20:09:18.904Z,12.80
2022-11-03T20:19:21.720Z,12.74
2022-11-03T20:29:27.667Z,12.81
2022-11-03T20:39:33.870Z,12.81
2022-11-03T20:49:38.099Z,12.75
2022-11-03T20:59:41.352Z,12.70
2022-11-03T21:09:45.627Z,12.74
2022-11-03T21:20:02.856Z,12.77
2022-11-03T21:30:08.854Z,12.96
2022-11-03T21:40:12.450Z,13.00
2022-11-03T21:50:16.742Z,13.02
2022-11-03T22:00:19.615Z,13.05
2022-11-03T22:10:24.301Z,13.11
2022-11-03T22:20:44.746Z,13.10
2022-11-03T22:31:06.358Z,13.06
2022-11-03T22:41:26.457Z,13.09
2022-11-03T22:51:31.262Z,13.14
2022-11-03T23:01:34.346Z,13.15
2022-11-03T23:11:38.801Z,13.24
2022-11-03T23:21:41.705Z,13.06
2022-11-03T23:31:46.704Z,12.97
2022-11-03T23:41:51.203Z,12.94
2022-11-03T23:51:55.746Z,13.01
